createdAt,value
2023-03-05T00:00:17.248Z,100488.03
2023-03-05T00:02:18.735Z,100515.59
2023-03-05T00:04:20.365Z,100499.47
2023-03-05T00:06:24.482Z,100506.06
2023-03-05T00:08:25.938Z,100500.09
2023-03-05T00:10:27.513Z,100507.63
2023-03-05T00:12:29.377Z,100498.22
2023-03-05T00:14:30.821Z,100504.38
2023-03-05T00:16:33.002Z,100498.53
2023-03-05T00:18:34.915Z,100504.03
2023-03-05T00:20:36.322Z,100490.97
2023-03-05T00:22:38.037Z,100498.63
2023-03-05T00:24:39.512Z,100490.91
2023-03-05T00:26:41.195Z,100490.91
2023-03-05T00:28:42.719Z,100484.44
2023-03-05T00:30:44.129Z,100483.25
2023-03-05T00:32:45.541Z,100476.31
2023-03-05T00:34:47.207Z,100476.53
2023-03-05T00:36:51.008Z,100477.44
2023-03-05T00:38:52.791Z,100465.72
2023-03-05T00:40:54.302Z,100472.75
2023-03-05T00:42:55.884Z,100461.50
2023-03-05T00:44:57.311Z,100466.72
2023-03-05T00:46:58.760Z,100451.13
2023-03-05T00:49:00.326Z,100459.47
2023-03-05T00:51:01.937Z,100458.78
2023-03-05T00:53:03.324Z,100453.78
2023-03-05T00:55:05.679Z,100448.88
2023-03-05T00:57:07.105Z,100449.94
2023-03-05T00:59:09.012Z,100444.19
2023-03-05T01:01:11.075Z,100453.22
2023-03-05T01:03:12.577Z,100439.56
2023-03-05T01:05:14.980Z,100443.06
2023-03-05T01:07:16.466Z,100428.56
2023-03-05T01:09:17.893Z,100433.66
2023-03-05T01:11:19.325Z,100428.75
2023-03-05T01:13:21.027Z,100423.63
2023-03-05T01:15:23.840Z,100431.41
2023-03-05T01:17:26.541Z,100406.66
2023-03-05T01:19:28.149Z,100405.47
2023-03-05T01:21:29.742Z,100417.88
2023-03-05T01:23:31.230Z,100419.44
2023-03-05T01:25:32.695Z,100421.38
2023-03-05T01:27:34.246Z,100409.97
2023-03-05T01:29:36.875Z,100417.25
2023-03-05T01:31:38.522Z,100386.09
2023-03-05T01:33:40.024Z,100413.75
2023-03-05T01:35:41.560Z,100414.44
2023-03-05T01:37:43.065Z,100402.94
2023-03-05T01:39:44.579Z,100412.56
2023-03-05T01:41:46.209Z,100404.03
2023-03-05T01:43:48.461Z,100401.59
2023-03-05T01:46:23.797Z,100406.03
2023-03-05T01:48:25.881Z,100408.91
2023-03-05T01:50:27.833Z,100398.22
2023-03-05T01:52:32.820Z,100403.50
2023-03-05T01:54:56.923Z,100375.28
2023-03-05T01:57:01.809Z,100403.56
2023-03-05T01:59:03.709Z,100396.84
2023-03-05T02:01:06.013Z,100395.22
2023-03-05T02:03:10.602Z,100394.81
2023-03-05T02:05:19.611Z,100395.50
2023-03-05T02:07:21.738Z,100389.34
2023-03-05T02:09:23.232Z,100384.44
2023-03-05T02:11:24.662Z,100387.81
2023-03-05T02:13:29.767Z,100379.19
2023-03-05T02:15:33.174Z,100385.00
2023-03-05T02:17:34.580Z,100374.63
2023-03-05T02:19:52.138Z,100382.97
2023-03-05T02:21:53.878Z,100370.06
2023-03-05T02:23:55.425Z,100368.81
2023-03-05T02:25:57.129Z,100371.91
2023-03-05T02:28:08.024Z,100366.78
2023-03-05T02:30:10.339Z,100371.41
2023-03-05T02:32:13.032Z,100342.44
2023-03-05T02:34:15.166Z,100348.91
2023-03-05T02:36:17.931Z,100360.41
2023-03-05T02:38:20.916Z,100358.94
2023-03-05T02:40:22.453Z,100357.19
2023-03-05T02:42:23.885Z,100303.41
2023-03-05T02:44:25.306Z,100349.50
2023-03-05T02:46:26.833Z,100354.84
2023-03-05T02:48:28.280Z,100336.34
2023-03-05T02:50:31.333Z,100349.75
2023-03-05T02:52:33.092Z,100353.38
2023-03-05T02:54:34.505Z,100347.69
2023-03-05T02:56:36.007Z,100336.13
2023-03-05T02:58:37.409Z,100341.81
2023-03-05T03:00:38.848Z,100350.09
2023-03-05T03:02:40.363Z,100346.31
2023-03-05T03:04:41.871Z,100339.44
2023-03-05T03:06:43.257Z,100336.69
2023-03-05T03:08:44.650Z,100343.44
2023-03-05T03:10:46.155Z,100330.75
2023-03-05T03:12:47.581Z,100324.56
2023-03-05T03:14:48.964Z,100333.13
2023-03-05T03:16:50.504Z,100315.47
2023-03-05T03:18:51.933Z,100335.53
2023-03-05T03:20:53.389Z,100344.69
2023-03-05T03:22:54.928Z,100331.50
2023-03-05T03:24:56.373Z,100306.00
2023-03-05T03:26:57.832Z,100336.94
2023-03-05T03:28:59.441Z,100318.66
2023-03-05T03:31:00.905Z,100318.72
2023-03-05T03:33:02.493Z,100320.28
2023-03-05T03:35:04.211Z,100318.09
2023-03-05T03:37:06.194Z,100321.59
2023-03-05T03:39:07.797Z,100311.28
2023-03-05T03:41:09.702Z,100313.81
2023-03-05T03:43:11.277Z,100313.88
2023-03-05T03:45:13.550Z,100309.06
2023-03-05T03:47:15.273Z,100269.47
2023-03-05T03:49:16.650Z,100300.50
2023-03-05T03:51:18.283Z,100306.16
2023-03-05T03:53:19.755Z,100273.59
2023-03-05T03:55:21.153Z,100285.09
2023-03-05T03:57:22.612Z,100263.53
2023-03-05T03:59:24.091Z,100285.84
2023-03-05T04:01:25.519Z,100283.72
2023-03-05T04:03:27.459Z,100265.00
2023-03-05T04:05:28.873Z,100278.25
2023-03-05T04:07:30.400Z,100283.59
2023-03-05T04:09:32.025Z,100276.53
2023-03-05T04:11:34.222Z,100260.44
2023-03-05T04:13:35.712Z,100280.16
2023-03-05T04:15:37.206Z,100271.78
2023-03-05T04:17:38.652Z,100267.97
2023-03-05T04:19:40.574Z,100268.44
2023-03-05T04:21:42.267Z,100261.63
2023-03-05T04:23:43.947Z,100268.44
2023-03-05T04:25:45.373Z,100264.16
2023-03-05T04:27:46.955Z,100257.94
2023-03-05T04:29:48.493Z,100261.44
2023-03-05T04:31:49.903Z,100252.56
2023-03-05T04:33:51.403Z,100236.41
2023-03-05T04:35:53.209Z,100253.50
2023-03-05T04:37:54.753Z,100259.84
2023-03-05T04:39:56.706Z,100255.13
2023-03-05T04:41:58.172Z,100254.97
2023-03-05T04:43:59.560Z,100258.56
2023-03-05T04:46:01.084Z,100246.78
2023-03-05T04:48:02.547Z,100260.38
2023-03-05T04:50:05.761Z,100257.78
2023-03-05T04:52:07.505Z,100245.75
2023-03-05T04:54:09.061Z,100228.59
2023-03-05T04:56:10.465Z,100246.00
2023-03-05T04:58:12.094Z,100244.03
2023-03-05T05:00:16.406Z,100238.38
2023-03-05T05:02:17.832Z,100208.53
2023-03-05T05:04:19.345Z,100218.50
2023-03-05T05:06:20.744Z,100219.34
2023-03-05T05:08:22.498Z,100209.78
2023-03-05T05:10:25.865Z,100211.31
2023-03-05T05:12:31.126Z,100211.41
2023-03-05T05:14:34.396Z,100224.72
2023-03-05T05:16:35.884Z,100228.69
2023-03-05T05:18:37.426Z,100219.00
2023-03-05T05:20:39.519Z,100222.50
2023-03-05T05:22:41.606Z,100222.72
2023-03-05T05:24:43.079Z,100224.88
2023-03-05T05:26:44.480Z,100207.34
2023-03-05T05:28:46.006Z,100216.53
2023-03-05T05:30:47.385Z,100207.97
2023-03-05T05:32:48.806Z,100215.53
2023-03-05T05:34:59.745Z,100199.22
2023-03-05T05:37:01.126Z,100210.94
2023-03-05T05:39:02.633Z,100201.59
2023-03-05T05:41:10.690Z,100204.00
2023-03-05T05:43:12.085Z,100189.19
2023-03-05T05:45:13.549Z,100190.59
2023-03-05T05:47:16.535Z,100175.75
2023-03-05T05:49:18.196Z,100158.47
2023-03-05T05:51:22.249Z,100158.06
2023-03-05T05:53:23.930Z,100161.41
2023-03-05T05:55:25.312Z,100159.78
2023-03-05T05:57:26.720Z,100145.72
2023-03-05T05:59:28.198Z,100161.53
2023-03-05T06:01:32.912Z,100154.78
2023-03-05T06:03:34.371Z,100170.28
2023-03-05T06:05:36.040Z,100168.72
2023-03-05T06:07:37.453Z,100187.66
2023-03-05T06:09:38.896Z,100194.13
2023-03-05T06:11:40.644Z,100182.47
2023-03-05T06:13:42.434Z,100191.03
2023-03-05T06:15:43.828Z,100165.38
2023-03-05T06:17:45.978Z,100182.66
2023-03-05T06:19:47.376Z,100187.25
2023-03-05T06:21:48.782Z,100187.84
2023-03-05T06:23:50.695Z,100174.66
2023-03-05T06:25:52.568Z,100156.22
2023-03-05T06:27:54.032Z,100149.97
2023-03-05T06:29:55.678Z,100175.25
2023-03-05T06:31:57.346Z,100166.63
2023-03-05T06:34:00.787Z,100162.19
2023-03-05T06:36:07.108Z,100161.44
2023-03-05T06:38:09.304Z,100147.22
2023-03-05T06:40:11.478Z,100161.38
2023-03-05T06:42:13.253Z,100168.56
2023-03-05T06:44:14.663Z,100163.16
2023-03-05T06:46:20.438Z,100173.72
2023-03-05T06:48:22.194Z,100174.91
2023-03-05T06:50:23.635Z,100173.28
2023-03-05T06:52:25.045Z,100168.00
2023-03-05T06:54:26.647Z,100172.88
2023-03-05T06:56:28.100Z,100172.00
2023-03-05T06:58:29.589Z,100164.06
2023-03-05T07:00:31.585Z,100158.19
2023-03-05T07:02:33.017Z,100152.38
2023-03-05T07:04:34.468Z,100166.41
2023-03-05T07:06:37.316Z,100170.09
2023-03-05T07:08:39.240Z,100153.25
2023-03-05T07:10:42.327Z,100166.09
2023-03-05T07:12:43.965Z,100170.34
2023-03-05T07:14:45.396Z,100162.09
2023-03-05T07:16:46.845Z,100163.75
2023-03-05T07:18:48.897Z,100161.44
2023-03-05T07:20:50.331Z,100158.84
2023-03-05T07:22:51.732Z,100138.28
2023-03-05T07:24:53.529Z,100151.13
2023-03-05T07:26:55.060Z,100110.09
2023-03-05T07:28:56.934Z,100151.97
2023-03-05T07:31:00.788Z,100149.72
2023-03-05T07:33:02.202Z,100144.78
2023-03-05T07:35:03.944Z,100140.03
2023-03-05T07:37:05.540Z,100147.56
2023-03-05T07:39:06.955Z,100139.28
2023-03-05T07:41:11.969Z,100148.72
2023-03-05T07:43:13.451Z,100144.66
2023-03-05T07:45:14.857Z,100145.78
2023-03-05T07:47:16.365Z,100145.19
2023-03-05T07:49:17.863Z,100144.56
2023-03-05T07:51:19.468Z,100081.22
2023-03-05T07:53:20.872Z,100121.31
2023-03-05T07:55:22.475Z,100128.56
2023-03-05T07:57:23.902Z,100140.00
2023-03-05T07:59:25.301Z,100144.16
2023-03-05T08:01:28.738Z,100144.75
2023-03-05T08:03:30.247Z,100110.88
2023-03-05T08:05:31.682Z,100132.13
2023-03-05T08:07:33.099Z,100126.47
2023-03-05T08:09:34.512Z,100146.06
2023-03-05T08:11:35.902Z,100136.50
2023-03-05T08:13:38.208Z,100130.16
2023-03-05T08:15:39.703Z,100149.03
2023-03-05T08:17:41.143Z,100140.91
2023-03-05T08:19:42.991Z,100138.56
2023-03-05T08:21:45.865Z,100148.50
2023-03-05T08:23:47.630Z,100140.91
2023-03-05T08:25:49.190Z,100146.44
2023-03-05T08:27:55.569Z,100128.97
2023-03-05T08:29:57.052Z,100135.50
2023-03-05T08:31:58.604Z,100139.06
2023-03-05T08:34:01.667Z,100125.13
2023-03-05T08:36:03.260Z,100144.88
2023-03-05T08:38:05.121Z,100129.00
2023-03-05T08:40:07.091Z,100133.41
2023-03-05T08:42:09.078Z,100129.41
2023-03-05T08:44:10.676Z,100140.31
2023-03-05T08:46:13.370Z,100131.84
2023-03-05T08:48:15.196Z,100135.38
2023-03-05T08:50:16.905Z,100129.72
2023-03-05T08:52:18.320Z,100125.88
2023-03-05T08:54:19.722Z,100135.38
2023-03-05T08:56:21.451Z,100124.66
2023-03-05T08:58:23.182Z,100128.38
2023-03-05T09:00:24.619Z,100110.03
2023-03-05T09:02:26.264Z,100126.19
2023-03-05T09:04:27.672Z,100130.00
2023-03-05T09:06:29.179Z,100133.28
2023-03-05T09:08:31.186Z,100123.78
2023-03-05T09:10:32.671Z,100102.44
2023-03-05T09:12:34.159Z,100125.03
2023-03-05T09:14:35.773Z,100122.94
2023-03-05T09:16:37.266Z,100123.16
2023-03-05T09:18:38.947Z,100112.06
2023-03-05T09:20:40.652Z,100112.84
2023-03-05T09:22:42.094Z,100100.06
2023-03-05T09:24:43.526Z,100117.84
2023-03-05T09:26:45.107Z,100101.84
2023-03-05T09:28:47.755Z,100114.28
2023-03-05T09:30:49.163Z,100073.66
2023-03-05T09:32:50.951Z,100109.38
2023-03-05T09:34:52.424Z,100119.75
2023-03-05T09:36:53.834Z,100099.88
2023-03-05T09:38:55.780Z,100120.16
2023-03-05T09:41:16.353Z,100116.81
2023-03-05T09:43:46.367Z,100116.06
2023-03-05T09:46:02.286Z,100116.94
2023-03-05T09:48:19.869Z,100110.41
2023-03-05T09:50:47.739Z,100083.78
2023-03-05T09:52:56.413Z,100119.38
2023-03-05T09:54:58.021Z,100110.84
2023-03-05T09:57:04.101Z,100108.53
2023-03-05T09:59:18.879Z,100095.81
2023-03-05T10:01:29.272Z,100094.13
2023-03-05T10:03:42.938Z,100094.00
2023-03-05T10:06:14.011Z,100095.59
2023-03-05T10:08:21.043Z,100100.06
2023-03-05T10:10:40.263Z,100098.09
2023-03-05T10:12:57.483Z,100097.88
2023-03-05T10:14:59.145Z,100090.38
2023-03-05T10:17:34.856Z,100091.59
2023-03-05T10:19:45.812Z,100088.38
2023-03-05T10:21:56.473Z,100088.28
2023-03-05T10:24:27.140Z,100082.13
2023-03-05T10:26:40.581Z,100075.50
2023-03-05T10:29:27.126Z,100076.56
2023-03-05T10:31:41.455Z,100066.94
2023-03-05T10:33:46.623Z,100072.41
2023-03-05T10:36:06.962Z,100060.59
2023-03-05T10:38:25.982Z,100065.06
2023-03-05T10:40:40.515Z,100056.97
2023-03-05T10:42:58.580Z,100060.19
2023-03-05T10:45:01.961Z,100054.25
2023-03-05T10:47:11.319Z,100049.50
2023-03-05T10:49:16.802Z,100032.72
2023-03-05T10:51:48.438Z,100051.22
2023-03-05T10:54:01.976Z,100045.97
2023-03-05T10:56:06.028Z,100041.78
2023-03-05T10:58:13.410Z,100046.88
2023-03-05T11:00:18.220Z,100051.78
2023-03-05T11:02:21.345Z,100048.09
2023-03-05T11:04:28.592Z,100044.09
2023-03-05T11:06:32.620Z,100043.53
2023-03-05T11:08:35.836Z,100021.63
2023-03-05T11:10:37.399Z,100030.66
2023-03-05T11:12:39.119Z,100033.50
2023-03-05T11:14:44.282Z,100015.53
2023-03-05T11:16:48.138Z,100030.16
2023-03-05T11:18:50.117Z,100026.25
2023-03-05T11:20:52.591Z,100028.59
2023-03-05T11:23:09.358Z,100024.91
2023-03-05T11:25:10.717Z,100022.59
2023-03-05T11:27:50.650Z,100024.56
2023-03-05T11:29:53.160Z,100019.28
2023-03-05T11:31:54.868Z,100004.00
2023-03-05T11:34:02.850Z,100026.19
2023-03-05T11:36:12.957Z,100022.81
2023-03-05T11:38:26.986Z,100013.72
2023-03-05T11:40:30.275Z,100018.59
2023-03-05T11:42:32.060Z,100016.75
2023-03-05T11:44:45.295Z,100007.06
2023-03-05T11:46:54.357Z,100008.53
2023-03-05T11:48:56.410Z,99997.97
2023-03-05T11:51:00.170Z,100007.25
2023-03-05T11:53:13.796Z,99998.13
2023-03-05T11:55:18.287Z,99987.88
2023-03-05T11:57:23.872Z,99989.38
2023-03-05T11:59:34.348Z,99992.09
2023-03-05T12:01:43.840Z,99988.38
2023-03-05T12:03:45.907Z,99965.56
2023-03-05T12:05:58.672Z,99973.44
2023-03-05T12:08:02.411Z,99985.06
2023-03-05T12:10:04.311Z,99970.00
2023-03-05T12:12:24.350Z,99988.53
2023-03-05T12:14:35.734Z,99980.13
2023-03-05T12:16:50.825Z,99936.06
2023-03-05T12:19:16.316Z,99935.50
2023-03-05T12:21:34.668Z,99966.13
2023-03-05T12:23:54.830Z,99955.56
2023-03-05T12:25:58.813Z,99961.06
2023-03-05T12:28:00.904Z,99946.69
2023-03-05T12:30:03.402Z,99968.63
2023-03-05T12:32:25.751Z,99967.41
2023-03-05T12:34:46.272Z,99971.53
2023-03-05T12:36:47.654Z,99977.56
2023-03-05T12:38:56.825Z,99975.50
2023-03-05T12:41:23.256Z,99979.13
2023-03-05T12:43:33.044Z,99970.84
2023-03-05T12:45:39.837Z,99956.88
2023-03-05T12:47:56.618Z,99973.28
2023-03-05T12:49:58.192Z,99963.50
2023-03-05T12:51:59.644Z,99960.13
2023-03-05T12:54:26.097Z,99974.88
2023-03-05T12:56:30.622Z,99972.91
2023-03-05T12:58:46.815Z,99978.34
2023-03-05T13:01:04.444Z,99979.50
2023-03-05T13:03:11.753Z,99967.97
2023-03-05T13:05:48.451Z,99967.97
2023-03-05T13:07:50.717Z,99971.97
2023-03-05T13:09:53.958Z,99973.06
2023-03-05T13:11:56.197Z,99950.97
2023-03-05T13:13:58.424Z,99972.16
2023-03-05T13:16:01.084Z,99969.50
2023-03-05T13:18:04.157Z,99969.75
2023-03-05T13:20:28.959Z,99972.16
2023-03-05T13:22:30.426Z,99961.72
2023-03-05T13:24:31.926Z,99969.19
2023-03-05T13:26:37.967Z,99966.31
2023-03-05T13:28:39.432Z,99944.41
2023-03-05T13:30:56.355Z,99966.31
2023-03-05T13:33:01.519Z,99967.03
2023-03-05T13:35:03.039Z,99961.66
2023-03-05T13:37:17.424Z,99959.25
2023-03-05T13:39:22.868Z,99942.09
2023-03-05T13:41:26.692Z,99957.41
2023-03-05T13:43:28.092Z,99949.50
2023-03-05T13:45:31.807Z,99949.88
2023-03-05T13:47:35.640Z,99941.81
2023-03-05T13:49:37.184Z,99954.63
2023-03-05T13:51:56.278Z,99953.06
2023-03-05T13:53:57.805Z,99948.66
2023-03-05T13:56:05.863Z,99952.34
2023-03-05T13:58:43.957Z,99948.19
2023-03-05T14:00:45.614Z,99952.97
2023-03-05T14:02:47.040Z,99934.31
2023-03-05T14:04:48.779Z,99946.13
2023-03-05T14:06:56.201Z,99943.97
2023-03-05T14:09:17.799Z,99944.19
2023-03-05T14:11:20.188Z,99918.31
2023-03-05T14:13:24.194Z,99940.03
2023-03-05T14:15:31.543Z,99912.16
2023-03-05T14:17:51.362Z,99924.28
2023-03-05T14:20:13.393Z,99929.00
2023-03-05T14:22:35.472Z,99935.53
2023-03-05T14:24:37.513Z,99919.22
2023-03-05T14:26:50.655Z,99876.09
2023-03-05T14:29:11.523Z,99936.53
2023-03-05T14:31:17.073Z,99921.44
2023-03-05T14:33:23.808Z,99907.84
2023-03-05T14:35:27.801Z,99911.84
2023-03-05T14:37:42.374Z,99910.19
2023-03-05T14:39:51.933Z,99918.81
2023-03-05T14:41:53.376Z,99927.63
2023-03-05T14:43:54.840Z,99923.88
2023-03-05T14:45:56.356Z,99902.78
2023-03-05T14:48:00.400Z,99930.22
2023-03-05T14:50:02.077Z,99924.91
2023-03-05T14:52:03.630Z,99921.94
2023-03-05T14:54:05.480Z,99918.69
2023-03-05T14:56:18.494Z,99923.16
2023-03-05T14:58:22.185Z,99921.44
2023-03-05T15:00:25.244Z,99916.53
2023-03-05T15:02:27.380Z,99904.94
2023-03-05T15:04:28.889Z,99905.47
2023-03-05T15:06:34.051Z,99923.56
2023-03-05T15:08:35.751Z,99926.13
2023-03-05T15:10:37.660Z,99910.31
2023-03-05T15:12:39.060Z,99925.56
2023-03-05T15:14:40.595Z,99933.13
2023-03-05T15:16:44.101Z,99933.13
2023-03-05T15:18:45.738Z,99934.13
2023-03-05T15:20:48.531Z,99941.97
2023-03-05T15:22:50.235Z,99938.38
2023-03-05T15:24:51.634Z,99935.16
2023-03-05T15:26:53.255Z,99941.00
2023-03-05T15:28:54.742Z,99923.09
2023-03-05T15:30:58.258Z,99938.78
2023-03-05T15:33:05.077Z,99942.19
2023-03-05T15:35:06.727Z,99922.03
2023-03-05T15:37:08.136Z,99931.00
2023-03-05T15:39:09.636Z,99940.59
2023-03-05T15:41:11.177Z,99943.06
2023-03-05T15:43:13.275Z,99941.69
2023-03-05T15:45:15.374Z,99943.03
2023-03-05T15:47:16.855Z,99903.47
2023-03-05T15:49:19.251Z,99944.47
2023-03-05T15:51:20.926Z,99941.94
2023-03-05T15:53:22.705Z,99940.56
2023-03-05T15:55:24.232Z,99940.91
2023-03-05T15:57:26.479Z,99934.50
2023-03-05T15:59:28.031Z,99934.63
2023-03-05T16:01:29.519Z,99939.13
2023-03-05T16:03:31.094Z,99942.38
2023-03-05T16:05:35.282Z,99934.75
2023-03-05T16:07:40.726Z,99945.94
2023-03-05T16:09:46.252Z,99942.97
2023-03-05T16:11:48.744Z,99944.72
2023-03-05T16:13:50.326Z,99926.97
2023-03-05T16:15:52.002Z,99940.63
2023-03-05T16:17:56.138Z,99945.16
2023-03-05T16:19:57.554Z,99937.41
2023-03-05T16:21:59.061Z,99944.94
2023-03-05T16:24:00.609Z,99948.91
2023-03-05T16:26:02.175Z,99936.59
2023-03-05T16:28:03.623Z,99946.22
2023-03-05T16:30:06.141Z,99948.84
2023-03-05T16:32:07.684Z,99946.44
2023-03-05T16:34:09.602Z,99950.59
2023-03-05T16:36:11.059Z,99958.03
2023-03-05T16:38:12.455Z,99962.72
2023-03-05T16:40:14.142Z,99957.50
2023-03-05T16:42:16.409Z,99958.13
2023-03-05T16:44:17.859Z,99960.13
2023-03-05T16:46:20.206Z,99958.50
2023-03-05T16:48:22.263Z,99965.63
2023-03-05T16:50:24.188Z,99949.88
2023-03-05T16:52:25.711Z,99944.84
2023-03-05T16:54:27.511Z,99933.38
2023-03-05T16:56:28.960Z,99948.53
2023-03-05T16:58:31.690Z,99962.31
2023-03-05T17:00:33.317Z,99961.25
2023-03-05T17:02:35.149Z,99963.44
2023-03-05T17:04:37.103Z,99948.59
2023-03-05T17:06:38.577Z,99954.53
2023-03-05T17:08:41.654Z,99942.09
2023-03-05T17:10:43.558Z,99959.44
2023-03-05T17:12:45.060Z,99967.06
2023-03-05T17:14:46.462Z,99946.19
2023-03-05T17:16:48.183Z,99959.03
2023-03-05T17:18:50.029Z,99959.53
2023-03-05T17:20:52.056Z,99960.38
2023-03-05T17:22:53.887Z,99958.38
2023-03-05T17:24:55.386Z,99968.28
2023-03-05T17:26:56.801Z,99967.66
2023-03-05T17:29:01.799Z,99962.31
2023-03-05T17:31:03.411Z,99967.75
2023-03-05T17:33:06.164Z,99959.50
2023-03-05T17:35:16.336Z,99961.22
2023-03-05T17:37:17.965Z,99965.59
2023-03-05T17:39:19.443Z,99971.47
2023-03-05T17:41:21.748Z,99961.97
2023-03-05T17:43:23.401Z,99922.28
2023-03-05T17:45:25.658Z,99951.22
2023-03-05T17:47:27.168Z,99965.41
2023-03-05T17:49:28.695Z,99967.09
2023-03-05T17:51:30.080Z,99965.91
2023-03-05T17:53:31.586Z,99965.72
2023-03-05T17:55:33.806Z,99966.06
2023-03-05T17:57:37.150Z,99959.38
2023-03-05T17:59:38.623Z,99966.84
2023-03-05T18:01:40.121Z,99970.94
2023-03-05T18:03:41.503Z,99976.56
2023-03-05T18:05:42.982Z,99964.97
2023-03-05T18:07:44.561Z,99974.91
2023-03-05T18:09:45.956Z,99972.13
2023-03-05T18:11:47.550Z,99962.78
2023-03-05T18:13:49.126Z,99979.03
2023-03-05T18:15:50.683Z,99967.63
2023-03-05T18:17:52.704Z,99966.19
2023-03-05T18:19:54.226Z,99976.25
2023-03-05T18:21:55.630Z,99978.47
2023-03-05T18:23:57.414Z,99966.28
2023-03-05T18:25:58.916Z,99962.41
2023-03-05T18:28:01.976Z,99958.22
2023-03-05T18:30:03.720Z,99950.63
2023-03-05T18:32:05.488Z,99955.72
2023-03-05T18:34:06.970Z,99954.78
2023-03-05T18:36:08.645Z,99956.84
2023-03-05T18:38:10.156Z,99954.25
2023-03-05T18:40:19.395Z,99956.88
2023-03-05T18:42:21.034Z,99948.47
2023-03-05T18:44:22.780Z,99934.19
2023-03-05T18:46:24.664Z,99961.66
2023-03-05T18:48:26.317Z,99960.41
2023-03-05T18:50:29.070Z,99955.72
2023-03-05T18:52:30.465Z,99964.78
2023-03-05T18:54:31.940Z,99958.97
2023-03-05T18:56:34.074Z,99960.41
2023-03-05T18:58:36.229Z,99969.81
2023-03-05T19:00:37.786Z,99977.94
2023-03-05T19:02:39.338Z,99958.97
2023-03-05T19:04:40.934Z,99962.59
2023-03-05T19:06:42.565Z,99967.63
2023-03-05T19:08:44.766Z,99960.53
2023-03-05T19:10:47.159Z,99950.56
2023-03-05T19:12:50.013Z,99940.41
2023-03-05T19:14:51.508Z,99946.47
2023-03-05T19:16:52.892Z,99955.88
2023-03-05T19:19:01.332Z,99958.31
2023-03-05T19:21:02.910Z,99941.66
2023-03-05T19:23:04.492Z,99950.06
2023-03-05T19:25:06.595Z,99947.59
2023-03-05T19:27:08.075Z,99951.25
2023-03-05T19:29:10.153Z,99943.47
2023-03-05T19:31:14.232Z,99943.69
2023-03-05T19:33:15.788Z,99943.69
2023-03-05T19:35:18.136Z,99937.84
2023-03-05T19:37:19.704Z,99947.91
2023-03-05T19:39:21.282Z,99951.94
2023-03-05T19:41:23.180Z,99939.69
2023-03-05T19:43:24.679Z,99925.66
2023-03-05T19:45:26.313Z,99929.78
2023-03-05T19:47:27.811Z,99948.44
2023-03-05T19:49:29.336Z,99945.38
2023-03-05T19:51:30.818Z,99947.50
2023-03-05T19:53:32.211Z,99942.56
2023-03-05T19:55:33.761Z,99947.34
2023-03-05T19:57:35.346Z,99922.44
2023-03-05T19:59:36.765Z,99947.75
2023-03-05T20:01:38.313Z,99942.47
2023-03-05T20:03:40.344Z,99933.69
2023-03-05T20:05:41.749Z,99943.75
2023-03-05T20:07:43.388Z,99943.66
2023-03-05T20:09:44.896Z,99940.22
2023-03-05T20:11:47.079Z,99916.81
2023-03-05T20:13:49.079Z,99912.84
2023-03-05T20:15:50.587Z,99932.63
2023-03-05T20:17:53.062Z,99930.94
2023-03-05T20:19:54.543Z,99915.34
2023-03-05T20:21:56.125Z,99912.56
2023-03-05T20:24:01.813Z,99934.09
2023-03-05T20:26:04.573Z,99927.63
2023-03-05T20:28:06.157Z,99925.75
2023-03-05T20:30:08.985Z,99916.47
2023-03-05T20:32:10.582Z,99883.41
2023-03-05T20:34:14.696Z,99920.47
2023-03-05T20:36:16.632Z,99906.72
2023-03-05T20:38:28.785Z,99925.75
2023-03-05T20:40:30.342Z,99923.41
2023-03-05T20:42:31.733Z,99916.84
2023-03-05T20:44:33.213Z,99929.16
2023-03-05T20:46:37.686Z,99902.94
2023-03-05T20:48:39.105Z,99927.53
2023-03-05T20:50:40.940Z,99920.41
2023-03-05T20:52:42.527Z,99906.06
2023-03-05T20:54:43.986Z,99923.72
2023-03-05T20:56:45.624Z,99920.94
2023-03-05T20:58:47.125Z,99910.91
2023-03-05T21:00:48.547Z,99903.75
2023-03-05T21:02:51.039Z,99916.56
2023-03-05T21:04:52.984Z,99921.81
2023-03-05T21:06:54.401Z,99924.41
2023-03-05T21:08:56.299Z,99905.72
2023-03-05T21:10:58.844Z,99921.13
2023-03-05T21:13:00.953Z,99917.59
2023-03-05T21:15:02.638Z,99888.13
2023-03-05T21:17:04.986Z,99916.19
2023-03-05T21:19:06.369Z,99914.84
2023-03-05T21:21:08.664Z,99915.00
2023-03-05T21:23:10.208Z,99919.63
2023-03-05T21:25:16.483Z,99921.69
2023-03-05T21:27:17.995Z,99913.06
2023-03-05T21:29:19.507Z,99914.63
2023-03-05T21:31:22.894Z,99904.44
2023-03-05T21:33:25.882Z,99912.59
2023-03-05T21:35:28.005Z,99912.41
2023-03-05T21:37:29.418Z,99910.75
2023-03-05T21:39:30.940Z,99909.44
2023-03-05T21:41:32.422Z,99911.28
2023-03-05T21:43:34.129Z,99917.06
2023-03-05T21:45:35.733Z,99901.56
2023-03-05T21:47:37.267Z,99901.81
2023-03-05T21:49:38.703Z,99916.13
2023-03-05T21:51:40.219Z,99913.16
2023-03-05T21:53:42.142Z,99915.38
2023-03-05T21:55:43.784Z,99908.78
2023-03-05T21:57:45.997Z,99908.50
2023-03-05T21:59:47.560Z,99907.19
2023-03-05T22:01:50.361Z,99903.97
2023-03-05T22:03:53.650Z,99908.50
2023-03-05T22:05:56.082Z,99885.16
2023-03-05T22:07:57.598Z,99901.59
2023-03-05T22:09:59.474Z,99907.94
2023-03-05T22:12:00.979Z,99909.13
2023-03-05T22:14:02.389Z,99904.59
2023-03-05T22:16:04.298Z,99907.19
2023-03-05T22:18:05.858Z,99884.63
2023-03-05T22:20:07.675Z,99900.97
2023-03-05T22:22:09.097Z,99903.41
2023-03-05T22:24:10.677Z,99900.31
2023-03-05T22:26:12.122Z,99884.81
2023-03-05T22:28:13.622Z,99892.47
2023-03-05T22:30:15.108Z,99895.06
2023-03-05T22:32:16.539Z,99899.47
2023-03-05T22:34:17.989Z,99881.50
2023-03-05T22:36:19.824Z,99906.19
2023-03-05T22:38:22.165Z,99885.25
2023-03-05T22:40:23.728Z,99897.91
2023-03-05T22:42:25.196Z,99901.25
2023-03-05T22:44:26.632Z,99901.16
2023-03-05T22:46:28.215Z,99902.06
2023-03-05T22:48:29.667Z,99889.56
2023-03-05T22:50:31.255Z,99894.06
2023-03-05T22:52:33.196Z,99898.91
2023-03-05T22:54:34.807Z,99905.03
2023-03-05T22:56:36.479Z,99901.53
2023-03-05T22:58:38.501Z,99903.09
2023-03-05T23:00:40.368Z,99887.00
2023-03-05T23:02:42.509Z,99906.81
2023-03-05T23:04:46.315Z,99904.41
2023-03-05T23:06:47.870Z,99892.28
2023-03-05T23:08:49.286Z,99906.38
2023-03-05T23:10:51.026Z,99902.88
2023-03-05T23:12:53.695Z,99881.91
2023-03-05T23:14:55.333Z,99901.44
2023-03-05T23:16:56.866Z,99907.88
2023-03-05T23:18:58.390Z,99901.84
2023-03-05T23:20:59.779Z,99903.03
2023-03-05T23:23:01.433Z,99877.16
2023-03-05T23:25:03.088Z,99904.53
2023-03-05T23:27:06.469Z,99903.03
2023-03-05T23:29:08.001Z,99906.78
2023-03-05T23:31:09.414Z,99898.19
2023-03-05T23:33:19.237Z,99899.84
2023-03-05T23:35:26.969Z,99893.47
2023-03-05T23:37:28.471Z,99880.84
2023-03-05T23:39:29.868Z,99888.44
2023-03-05T23:41:31.377Z,99891.03
2023-03-05T23:43:32.784Z,99884.28
2023-03-05T23:45:34.351Z,99880.66
2023-03-05T23:47:36.233Z,99898.16
2023-03-05T23:49:37.769Z,99873.38
2023-03-05T23:51:39.184Z,99893.91
2023-03-05T23:53:40.686Z,99897.16